• NOTAM LFQA (REIMS / Prunay)

     30/04 08:29Z - 30/10/21 23:59Z
    E) DISTANCES DECLAREES MODIFIEES PISTE REVETUE 07 : TORA=925M TODA=985M ASDA=925M LDA=895M FIN DE TODA : 185M AVANT EXTREMITE PHYSIQUE DE PISTE FIN DE LDA : 60M AVANT EXTREMITE PHYSIQUE DE PISTE MODIFICATION CAUSE PRESENCE OBSTACLES CONSTITUES PAR LES ROUTES D944 ET D931.

     30/04 08:31Z - 30/10/21 23:59Z
    E) DISTANCES DECLAREES PISTE REVETUE 25 MODIFIEES: TORA 955M TODA 1005M ASDA 955M LDA 767M FIN DE TODA 155M AVANT L'EXTREMITE PHYSIQUE DE PISTE FIN DE LDA 60M AVANT L'EXTREMITE PHYSIQUE DE PISTE MODIFICATION CAUSE PRESENCE OBSTACLES CONSTITUES PAR LES ROUTES D944 ET D931.

     30/04 08:45Z - 30/10/21 23:59Z
    E) TWY PARALLELE ENTRE LA SORTIE SUD-EST DU PARKING TOUR ET LE POINT D'ATTENTE 25 INTERDIT AUX AERONEFS DONT LA LARGEUR DE TRAIN D'ATTERRISSAGE EST SUPERIEURE OU EGALE A 4.5M

     30/04 13:52Z - 30/10/21 23:59Z
    E) BALISAGE LUMINEUX SUR UNE SEULE BOUCLE. ARRIVEES IFR PREVOIR UN DEGAGEMENT VERS UN AD ACCESSIBLE ET CONFORME

     03/05 07:42Z - 09/05/21 17:00Z
    D) 03 04 07 08 09 0700-1700 E) RFFS DECLASSE NIVEAU 1

     08/05 07:00Z - 02/07/21 17:00Z
    E) PARACHUTAGES SUR AD REIMS PRUNAY PENDANT HORAIRES AFIS : - PSN : 491235N 0040916E - INFO : SEINE INFO 120.325MHZ PARIS CTL 131.180MHZ PRUNAY INFO 134.925MHZ F) SFC











  • PHOTOS SATELLITE

CARTE TEMSI

CARTE WINTEM

  • Vent au sol

  • Vent à 2000ft

  • ANIMATION RADAR

  • METAR/TAF LFQA (REIMS / Prunay)

    LFQA 061300Z AUTO 11006KT 090V150 9999 -RADZ BKN009/// BKN014/// BKN019/// ///TCU 08/07 Q1003

    METAR/TAF LFOK (CHALONS / Vatry)

    LFOK 061300Z AUTO 18010KT 9999 -RA OVC007/// ///TCU 09/08 Q1002 TEMPO 4000 DZRA OVC007

    TAF LFOK 061100Z 0612/0712 16010KT 9999 RA BKN013 TEMPO 0612/0615 4000 DZRA OVC007 FM061500 28008KT 9999 BKN025 TEMPO 0616/0622 3000 SHRA BKN020TCU PROB30 TEMPO 0616/0618 28020G30KT

  • COMM' CLUB

    Rénovation terminée de F-BVOL

    Après la sellerie refaite complètement durant l'hiver, la rénovation complète de l'avionique et des plastiques est désormais terminée.

    Les nouveaux Garmin G5 intégrés dans le "T basique" nécessiteront un vol de relâché avec un instructeur